Time,TemperatureF,DewpointF,PressureIn,WindDirection,WindDirectionDegrees,WindSpeedMPH,WindSpeedGustMPH,Humidity,HourlyPrecipIn,Conditions,Clouds,dailyrainin,SoftwareType,DateUTC
2013-01-31 00:01:00,34.9,30.0,30.19,SW,224,0.0,0.0,82,0.00,,,0.00,VWS V14.01,2013-01-31 08:01:00,
2013-01-31 00:06:00,34.9,30.0,30.19,SW,224,0.0,0.0,82,0.00,,,0.00,VWS V14.01,2013-01-31 08:06:00,
2013-01-31 00:11:00,34.9,30.0,30.19,SW,224,0.0,0.0,82,0.00,,,0.00,VWS V14.01,2013-01-31 08:11:00,
2013-01-31 00:16:00,34.9,30.2,30.19,SW,224,0.0,0.0,83,0.00,,,0.00,VWS V14.01,2013-01-31 08:16:00,
2013-01-31 00:21:00,35.1,30.4,30.19,SW,224,0.0,0.0,83,0.00,,,0.00,VWS V14.01,2013-01-31 08:21:00,
2013-01-31 00:26:00,35.1,30.4,30.19,SW,219,0.0,0.0,83,0.00,,,0.00,VWS V14.01,2013-01-31 08:26:00,
2013-01-31 00:31:00,34.9,30.2,30.19,SW,219,0.0,0.0,83,0.00,,,0.00,VWS V14.01,2013-01-31 08:31:00,
2013-01-31 00:36:00,34.9,30.2,30.19,SW,219,0.0,0.0,83,0.00,,,0.00,VWS V14.01,2013-01-31 08:36:00,
2013-01-31 00:41:00,34.9,30.2,30.19,SW,219,0.0,0.0,83,0.00,,,0.00,VWS V14.01,2013-01-31 08:41:00,
2013-01-31 00:46:00,34.7,29.8,30.19,SW,219,0.0,0.0,82,0.00,,,0.00,VWS V14.01,2013-01-31 08:46:00,
2013-01-31 00:51:00,34.5,29.6,30.16,SW,219,0.0,0.0,82,0.00,,,0.00,VWS V14.01,2013-01-31 08:51:00,
2013-01-31 00:56:00,34.7,30.1,30.16,SW,219,0.0,0.0,83,0.00,,,0.00,VWS V14.01,2013-01-31 08:56:00,
2013-01-31 01:01:00,34.7,30.1,30.16,SW,219,0.0,0.0,83,0.00,,,0.00,VWS V14.01,2013-01-31 09:01:00,
2013-01-31 01:06:00,34.7,30.1,30.19,WSW,247,0.0,0.0,83,0.00,,,0.00,VWS V14.01,2013-01-31 09:06:00,
2013-01-31 01:11:00,34.7,30.1,30.19,WSW,247,0.0,0.0,83,0.00,,,0.00,VWS V14.01,2013-01-31 09:11:00,
2013-01-31 01:16:00,34.7,30.1,30.19,WSW,247,0.0,0.0,83,0.00,,,0.00,VWS V14.01,2013-01-31 09:16:00,
2013-01-31 01:21:00,34.9,30.2,30.19,WSW,247,0.0,0.0,83,0.00,,,0.00,VWS V14.01,2013-01-31 09:21:00,
2013-01-31 01:26:00,34.9,30.2,30.19,WSW,245,2.7,2.7,83,0.00,,,0.00,VWS V14.01,2013-01-31 09:26:00,
2013-01-31 01:31:00,35.2,30.9,30.19,SSW,211,0.0,2.7,84,0.00,,,0.00,VWS V14.01,2013-01-31 09:31:00,
2013-01-31 01:36:00,35.4,31.1,30.19,West,261,0.0,0.0,84,0.00,,,0.00,VWS V14.01,2013-01-31 09:36:00,
2013-01-31 01:41:00,35.6,31.2,30.19,West,261,0.0,0.0,84,0.00,,,0.00,VWS V14.01,2013-01-31 09:41:00,
2013-01-31 01:46:00,35.8,31.4,30.19,West,273,3.6,3.6,84,0.00,,,0.00,VWS V14.01,2013-01-31 09:46:00,
2013-01-31 01:51:00,36.0,31.6,30.19,WSW,241,3.6,3.6,84,0.00,,,0.00,VWS V14.01,2013-01-31 09:51:00,
2013-01-31 01:56:00,36.1,31.8,30.19,WSW,256,5.8,5.8,84,0.00,,,0.00,VWS V14.01,2013-01-31 09:56:00,
2013-01-31 02:01:00,36.3,32.2,30.19,West,278,7.2,8.1,85,0.00,,,0.00,VWS V14.01,2013-01-31 10:01:00,
2013-01-31 02:06:00,36.7,32.6,30.19,WSW,242,11.0,11.0,85,0.00,,,0.00,VWS V14.01,2013-01-31 10:06:00,
2013-01-31 02:11:00,36.9,32.8,30.19,WSW,253,10.1,10.1,85,0.00,,,0.00,VWS V14.01,2013-01-31 10:11:00,
2013-01-31 02:16:00,37.0,33.0,30.19,West,270,10.5,12.8,85,0.00,,,0.00,VWS V14.01,2013-01-31 10:16:00,
2013-01-31 02:21:00,37.4,33.0,30.19,WSW,250,7.6,8.1,84,0.00,,,0.00,VWS V14.01,2013-01-31 10:21:00,
2013-01-31 02:26:00,37.6,32.9,30.19,SW,236,8.3,8.3,83,0.00,,,0.00,VWS V14.01,2013-01-31 10:26:00,
2013-01-31 02:31:00,37.6,32.6,30.19,West,261,7.6,7.6,82,0.00,,,0.00,VWS V14.01,2013-01-31 10:31:00,
2013-01-31 02:36:00,37.6,32.3,30.19,WSW,255,6.3,7.6,81,0.00,,,0.00,VWS V14.01,2013-01-31 10:36:00,
2013-01-31 02:41:00,37.8,32.5,30.19,West,260,5.4,8.3,81,0.00,,,0.00,VWS V14.01,2013-01-31 10:41:00,
2013-01-31 02:46:00,37.9,32.3,30.19,West,262,5.8,7.6,80,0.00,,,0.00,VWS V14.01,2013-01-31 10:46:00,
2013-01-31 02:51:00,37.8,32.2,30.19,West,265,8.1,8.7,80,0.00,,,0.00,VWS V14.01,2013-01-31 10:51:00,
2013-01-31 02:56:00,37.8,31.8,30.19,West,263,4.9,5.4,79,0.00,,,0.00,VWS V14.01,2013-01-31 10:56:00,
2013-01-31 03:01:00,37.8,31.5,30.19,WSW,254,4.9,6.3,78,0.00,,,0.00,VWS V14.01,2013-01-31 11:01:00,
2013-01-31 03:06:00,37.9,31.7,30.19,West,270,5.8,5.8,78,0.00,,,0.00,VWS V14.01,2013-01-31 11:06:00,
2013-01-31 03:11:00,37.9,31.7,30.19,WSW,252,6.3,6.3,78,0.00,,,0.00,VWS V14.01,2013-01-31 11:11:00,
2013-01-31 03:16:00,37.9,31.7,30.19,SW,231,7.6,7.6,78,0.00,,,0.00,VWS V14.01,2013-01-31 11:16:00,
2013-01-31 03:21:00,38.1,31.6,30.19,West,262,5.4,5.4,77,0.00,,,0.00,VWS V14.01,2013-01-31 11:21:00,
2013-01-31 03:26:00,38.1,31.2,30.19,WSW,254,7.6,7.6,76,0.00,,,0.00,VWS V14.01,2013-01-31 11:26:00,
2013-01-31 03:31:00,38.1,31.2,30.19,WSW,238,4.9,8.3,76,0.00,,,0.00,VWS V14.01,2013-01-31 11:31:00,
2013-01-31 03:36:00,37.9,31.1,30.19,WSW,257,3.6,3.6,76,0.00,,,0.00,VWS V14.01,2013-01-31 11:36:00,
2013-01-31 03:41:00,37.8,30.6,30.19,West,269,6.3,6.3,75,0.00,,,0.00,VWS V14.01,2013-01-31 11:41:00,
2013-01-31 03:46:00,37.8,30.6,30.19,West,269,4.5,5.4,75,0.00,,,0.00,VWS V14.01,2013-01-31 11:46:00,
2013-01-31 03:51:00,37.9,31.1,30.19,WSW,250,7.6,7.6,76,0.00,,,0.00,VWS V14.01,2013-01-31 11:51:00,
2013-01-31 03:56:00,37.9,30.7,30.19,WSW,257,6.3,6.3,75,0.00,,,0.00,VWS V14.01,2013-01-31 11:56:00,
2013-01-31 04:01:00,38.1,30.9,30.19,West,275,8.7,8.7,75,0.00,,,0.00,VWS V14.01,2013-01-31 12:01:00,
2013-01-31 04:06:00,38.3,31.1,30.19,West,269,5.8,5.8,75,0.00,,,0.00,VWS V14.01,2013-01-31 12:06:00,
2013-01-31 04:11:00,38.1,30.9,30.19,WSW,249,4.9,4.9,75,0.00,,,0.00,VWS V14.01,2013-01-31 12:11:00,
2013-01-31 04:16:00,38.1,30.6,30.19,West,273,4.9,4.9,74,0.00,,,0.00,VWS V14.01,2013-01-31 12:16:00,
2013-01-31 04:21:00,38.1,30.6,30.19,West,270,7.2,7.6,74,0.00,,,0.00,VWS V14.01,2013-01-31 12:21:00,
2013-01-31 04:26:00,38.1,30.6,30.19,West,271,3.1,8.7,74,0.00,,,0.00,VWS V14.01,2013-01-31 12:26:00,
2013-01-31 04:31:00,38.1,30.6,30.19,WSW,248,6.3,8.1,74,0.00,,,0.00,VWS V14.01,2013-01-31 12:31:00,
2013-01-31 04:36:00,38.1,30.6,30.19,West,268,8.1,8.3,74,0.00,,,0.00,VWS V14.01,2013-01-31 12:36:00,
2013-01-31 04:41:00,38.1,30.6,30.19,WSW,249,6.3,6.3,74,0.00,,,0.00,VWS V14.01,2013-01-31 12:41:00,
2013-01-31 04:46:00,38.1,30.2,30.19,WSW,252,4.0,8.1,73,0.00,,,0.00,VWS V14.01,2013-01-31 12:46:00,
2013-01-31 04:51:00,37.9,30.1,30.19,West,260,4.0,5.8,73,0.00,,,0.00,VWS V14.01,2013-01-31 12:51:00,
2013-01-31 04:56:00,37.8,29.9,30.19,WSW,248,4.0,4.5,73,0.00,,,0.00,VWS V14.01,2013-01-31 12:56:00,
2013-01-31 05:01:00,37.8,29.9,30.19,WSW,240,4.0,4.0,73,0.00,,,0.00,VWS V14.01,2013-01-31 13:01:00,
2013-01-31 05:06:00,37.6,29.7,30.19,WSW,251,4.9,4.9,73,0.00,,,0.00,VWS V14.01,2013-01-31 13:06:00,
2013-01-31 05:11:00,37.6,30.1,30.19,SW,233,3.6,3.6,74,0.00,,,0.00,VWS V14.01,2013-01-31 13:11:00,
2013-01-31 05:16:00,37.4,29.9,30.19,SW,223,2.7,3.6,74,0.00,,,0.00,VWS V14.01,2013-01-31 13:16:00,
2013-01-31 05:21:00,37.4,29.9,30.19,WSW,246,4.0,4.0,74,0.00,,,0.00,VWS V14.01,2013-01-31 13:21:00,
2013-01-31 05:26:00,37.4,30.2,30.19,SW,228,3.6,3.6,75,0.00,,,0.00,VWS V14.01,2013-01-31 13:26:00,
2013-01-31 05:31:00,37.4,30.2,30.19,WSW,251,4.0,4.9,75,0.00,,,0.00,VWS V14.01,2013-01-31 13:31:00,
2013-01-31 05:36:00,37.4,30.5,30.19,WSW,245,3.6,4.9,76,0.00,,,0.00,VWS V14.01,2013-01-31 13:36:00,
2013-01-31 05:41:00,37.4,30.5,30.19,WSW,239,2.7,2.7,76,0.00,,,0.00,VWS V14.01,2013-01-31 13:41:00,
2013-01-31 05:46:00,37.4,30.5,30.19,SW,222,4.5,5.8,76,0.00,,,0.00,VWS V14.01,2013-01-31 13:46:00,
2013-01-31 05:51:00,37.2,31.0,30.19,SW,228,3.1,4.0,78,0.00,,,0.00,VWS V14.01,2013-01-31 13:51:00,
2013-01-31 05:56:00,37.2,31.0,30.19,SSW,198,2.7,5.4,78,0.00,,,0.00,VWS V14.01,2013-01-31 13:56:00,
2013-01-31 06:01:00,37.2,31.0,30.19,SW,227,2.7,2.7,78,0.00,,,0.00,VWS V14.01,2013-01-31 14:01:00,
2013-01-31 06:06:00,37.2,31.0,30.19,SW,221,0.0,0.0,78,0.00,,,0.00,VWS V14.01,2013-01-31 14:06:00,
2013-01-31 06:11:00,37.2,31.0,30.19,SW,221,0.0,0.0,78,0.00,,,0.00,VWS V14.01,2013-01-31 14:11:00,
2013-01-31 06:16:00,37.0,30.8,30.19,SW,221,0.0,0.0,78,0.00,,,0.00,VWS V14.01,2013-01-31 14:16:00,
2013-01-31 06:21:00,37.0,30.8,30.19,SW,220,2.2,2.7,78,0.00,,,0.00,VWS V14.01,2013-01-31 14:21:00,
2013-01-31 06:26:00,37.0,31.1,30.19,SW,229,3.1,3.1,79,0.00,,,0.00,VWS V14.01,2013-01-31 14:26:00,
2013-01-31 06:31:00,37.0,31.1,30.19,SW,229,0.0,0.0,79,0.00,,,0.00,VWS V14.01,2013-01-31 14:31:00,
2013-01-31 06:36:00,37.0,31.1,30.19,WSW,247,0.0,2.7,79,0.00,,,0.00,VWS V14.01,2013-01-31 14:36:00,
2013-01-31 06:41:00,37.0,31.1,30.19,WSW,247,0.0,0.0,79,0.00,,,0.00,VWS V14.01,2013-01-31 14:41:00,
2013-01-31 06:46:00,36.9,31.0,30.19,WSW,247,0.0,0.0,79,0.00,,,0.00,VWS V14.01,2013-01-31 14:46:00,
2013-01-31 06:51:00,36.9,31.0,30.19,WSW,247,0.0,0.0,79,0.00,,,0.00,VWS V14.01,2013-01-31 14:51:00,
2013-01-31 06:56:00,36.9,31.0,30.19,WSW,247,0.0,0.0,79,0.00,,,0.00,VWS V14.01,2013-01-31 14:56:00,
2013-01-31 07:01:00,36.9,31.0,30.19,WSW,247,2.7,2.7,79,0.00,,,0.00,VWS V14.01,2013-01-31 15:01:00,
2013-01-31 07:06:00,37.0,31.1,30.19,West,259,5.8,6.3,79,0.00,,,0.00,VWS V14.01,2013-01-31 15:06:00,
2013-01-31 07:11:00,37.2,31.6,30.19,WSW,237,2.7,3.1,80,0.00,,,0.00,VWS V14.01,2013-01-31 15:11:00,
2013-01-31 07:16:00,37.4,31.8,30.19,West,259,5.4,5.8,80,0.00,,,0.00,VWS V14.01,2013-01-31 15:16:00,
2013-01-31 07:21:00,37.4,31.8,30.19,WSW,256,4.9,4.9,80,0.00,,,0.00,VWS V14.01,2013-01-31 15:21:00,
2013-01-31 07:26:00,37.4,31.8,30.19,SW,225,4.5,4.5,80,0.00,,,0.00,VWS V14.01,2013-01-31 15:26:00,
2013-01-31 07:31:00,37.4,31.8,30.19,SSW,207,6.3,6.3,80,0.00,,,0.00,VWS V14.01,2013-01-31 15:31:00,
2013-01-31 07:36:00,37.6,32.3,30.19,SSW,206,2.2,2.7,81,0.00,,,0.00,VWS V14.01,2013-01-31 15:36:00,
2013-01-31 07:41:00,37.6,32.3,30.19,WSW,241,0.0,3.6,81,0.00,,,0.00,VWS V14.01,2013-01-31 15:41:00,
2013-01-31 07:46:00,37.6,32.3,30.19,SW,216,0.0,2.2,81,0.00,,,0.00,VWS V14.01,2013-01-31 15:46:00,
2013-01-31 07:51:00,37.8,32.5,30.19,WSW,246,4.9,4.9,81,0.00,,,0.00,VWS V14.01,2013-01-31 15:51:00,
2013-01-31 07:56:00,37.9,32.6,30.19,West,262,0.0,0.0,81,0.00,,,0.00,VWS V14.01,2013-01-31 15:56:00,
2013-01-31 08:01:00,37.9,32.6,30.19,West,262,0.0,0.0,81,0.00,,,0.00,VWS V14.01,2013-01-31 16:01:00,
2013-01-31 08:06:00,37.9,32.6,30.19,SW,223,4.0,5.4,81,0.00,,,0.00,VWS V14.01,2013-01-31 16:06:00,
2013-01-31 08:11:00,38.1,32.8,30.19,SW,222,2.2,2.2,81,0.00,,,0.00,VWS V14.01,2013-01-31 16:11:00,
2013-01-31 08:16:00,38.1,32.8,30.19,WSW,257,2.2,4.0,81,0.00,,,0.00,VWS V14.01,2013-01-31 16:16:00,
2013-01-31 08:21:00,38.5,33.2,30.19,SSW,199,3.1,3.6,81,0.00,,,0.00,VWS V14.01,2013-01-31 16:21:00,
2013-01-31 08:26:00,38.5,33.5,30.19,WSW,239,4.0,4.9,82,0.00,,,0.00,VWS V14.01,2013-01-31 16:26:00,
2013-01-31 08:31:00,38.7,33.7,30.19,SW,231,2.7,4.0,82,0.00,,,0.00,VWS V14.01,2013-01-31 16:31:00,
2013-01-31 08:36:00,38.7,33.7,30.22,SSW,194,6.3,6.3,82,0.00,,,0.00,VWS V14.01,2013-01-31 16:36:00,
2013-01-31 08:41:00,38.8,33.5,30.22,SW,229,5.4,5.8,81,0.00,,,0.00,VWS V14.01,2013-01-31 16:41:00,
2013-01-31 08:46:00,38.8,33.5,30.22,WSW,237,3.1,4.0,81,0.00,,,0.00,VWS V14.01,2013-01-31 16:46:00,
2013-01-31 08:51:00,39.0,33.7,30.22,SW,216,4.0,6.3,81,0.00,,,0.00,VWS V14.01,2013-01-31 16:51:00,
2013-01-31 08:56:00,39.2,33.6,30.22,WSW,240,4.5,5.8,80,0.00,,,0.00,VWS V14.01,2013-01-31 16:56:00,
2013-01-31 09:01:00,39.4,33.7,30.22,WSW,256,5.8,5.8,80,0.00,,,0.00,VWS V14.01,2013-01-31 17:01:00,
2013-01-31 09:06:00,39.7,33.8,30.19,SSW,196,6.3,7.6,79,0.00,,,0.00,VWS V14.01,2013-01-31 17:06:00,
2013-01-31 09:11:00,39.9,33.6,30.19,WSW,243,5.8,5.8,78,0.00,,,0.00,VWS V14.01,2013-01-31 17:11:00,
2013-01-31 09:16:00,40.1,33.5,30.19,West,261,5.4,5.8,77,0.00,,,0.00,VWS V14.01,2013-01-31 17:16:00,
2013-01-31 09:21:00,40.3,33.3,30.19,WSW,237,4.0,4.9,76,0.00,,,0.00,VWS V14.01,2013-01-31 17:21:00,
2013-01-31 09:26:00,40.1,32.5,30.19,WSW,253,5.4,7.6,74,0.00,,,0.00,VWS V14.01,2013-01-31 17:26:00,
2013-01-31 09:31:00,40.1,32.5,30.19,SW,234,4.9,5.4,74,0.00,,,0.00,VWS V14.01,2013-01-31 17:31:00,
2013-01-31 09:36:00,40.1,32.2,30.19,WSW,245,4.0,4.0,73,0.00,,,0.00,VWS V14.01,2013-01-31 17:36:00,
2013-01-31 09:41:00,40.3,32.7,30.19,SW,225,4.0,5.4,74,0.00,,,0.00,VWS V14.01,2013-01-31 17:41:00,
2013-01-31 09:46:00,40.3,32.7,30.19,WSW,238,5.8,5.8,74,0.00,,,0.00,VWS V14.01,2013-01-31 17:46:00,
2013-01-31 09:51:00,40.3,32.3,30.19,WSW,256,4.0,5.4,73,0.00,,,0.00,VWS V14.01,2013-01-31 17:51:00,
2013-01-31 09:56:00,40.3,32.3,30.19,WSW,249,3.6,5.8,73,0.00,,,0.00,VWS V14.01,2013-01-31 17:56:00,
2013-01-31 10:01:00,40.5,32.5,30.19,WSW,252,5.8,5.8,73,0.00,,,0.00,VWS V14.01,2013-01-31 18:01:00,
2013-01-31 10:06:00,40.5,32.5,30.19,WSW,246,6.7,6.7,73,0.00,,,0.00,VWS V14.01,2013-01-31 18:06:00,
2013-01-31 10:11:00,40.6,32.7,30.19,WSW,254,6.3,6.3,73,0.00,,,0.00,VWS V14.01,2013-01-31 18:11:00,
2013-01-31 10:16:00,40.6,32.3,30.19,West,265,5.8,8.1,72,0.00,,,0.00,VWS V14.01,2013-01-31 18:16:00,
2013-01-31 10:21:00,40.6,32.0,30.22,WSW,245,8.3,10.1,71,0.00,,,0.00,VWS V14.01,2013-01-31 18:21:00,
2013-01-31 10:26:00,40.8,31.5,30.22,SW,231,5.8,8.7,69,0.00,,,0.00,VWS V14.01,2013-01-31 18:26:00,
2013-01-31 10:31:00,41.2,30.7,30.22,SW,232,8.7,10.1,66,0.00,,,0.00,VWS V14.01,2013-01-31 18:31:00,
2013-01-31 10:36:00,41.7,30.8,30.22,SW,226,8.7,8.7,65,0.00,,,0.00,VWS V14.01,2013-01-31 18:36:00,
2013-01-31 10:41:00,41.5,29.5,30.22,SW,225,7.6,10.1,62,0.00,,,0.00,VWS V14.01,2013-01-31 18:41:00,
2013-01-31 10:46:00,41.9,30.2,30.22,SW,231,6.3,8.7,63,0.00,,,0.00,VWS V14.01,2013-01-31 18:46:00,
2013-01-31 10:51:00,42.3,30.6,30.22,WSW,249,5.4,6.3,63,0.00,,,0.00,VWS V14.01,2013-01-31 18:51:00,
2013-01-31 10:56:00,42.3,29.8,30.22,SW,234,8.1,8.1,61,0.00,,,0.00,VWS V14.01,2013-01-31 18:56:00,
2013-01-31 11:01:00,42.4,30.0,30.22,SSW,209,5.4,5.8,61,0.00,,,0.00,VWS V14.01,2013-01-31 19:01:00,
2013-01-31 11:06:00,42.4,29.5,30.22,SW,229,4.0,6.3,60,0.00,,,0.00,VWS V14.01,2013-01-31 19:06:00,
2013-01-31 11:11:00,42.8,29.5,30.22,SW,220,5.4,5.8,59,0.00,,,0.00,VWS V14.01,2013-01-31 19:11:00,
2013-01-31 11:16:00,43.0,29.2,30.22,WSW,245,8.1,8.1,58,0.00,,,0.00,VWS V14.01,2013-01-31 19:16:00,
2013-01-31 11:21:00,43.2,29.0,30.19,SW,221,4.9,5.4,57,0.00,,,0.00,VWS V14.01,2013-01-31 19:21:00,
2013-01-31 11:26:00,43.7,29.5,30.19,West,260,8.7,8.7,57,0.00,,,0.00,VWS V14.01,2013-01-31 19:26:00,
2013-01-31 11:31:00,44.1,28.5,30.19,SW,228,8.3,8.3,54,0.00,,,0.00,VWS V14.01,2013-01-31 19:31:00,
2013-01-31 11:36:00,43.7,27.7,30.19,SW,233,10.5,10.5,53,0.00,,,0.00,VWS V14.01,2013-01-31 19:36:00,
2013-01-31 11:41:00,43.3,27.8,30.19,WSW,241,8.1,8.1,54,0.00,,,0.00,VWS V14.01,2013-01-31 19:41:00,
2013-01-31 11:46:00,43.2,28.1,30.19,WSW,249,9.2,9.2,55,0.00,,,0.00,VWS V14.01,2013-01-31 19:46:00,
2013-01-31 11:51:00,43.3,28.3,30.19,WSW,237,8.7,8.7,55,0.00,,,0.00,VWS V14.01,2013-01-31 19:51:00,
2013-01-31 11:56:00,43.5,28.4,30.19,SW,224,7.6,8.1,55,0.00,,,0.00,VWS V14.01,2013-01-31 19:56:00,
2013-01-31 12:01:00,43.5,28.4,30.19,WSW,252,8.1,8.1,55,0.00,,,0.00,VWS V14.01,2013-01-31 20:01:00,
2013-01-31 12:06:00,43.5,28.4,30.19,SW,227,8.7,8.7,55,0.00,,,0.00,VWS V14.01,2013-01-31 20:06:00,
2013-01-31 12:11:00,43.5,28.0,30.19,SW,234,7.6,7.6,54,0.00,,,0.00,VWS V14.01,2013-01-31 20:11:00,
2013-01-31 12:16:00,43.7,27.7,30.19,WSW,255,7.2,7.6,53,0.00,,,0.00,VWS V14.01,2013-01-31 20:16:00,
2013-01-31 12:21:00,43.9,27.9,30.19,SW,232,7.6,7.6,53,0.00,,,0.00,VWS V14.01,2013-01-31 20:21:00,
2013-01-31 12:26:00,44.1,28.0,30.19,SW,235,6.7,8.1,53,0.00,,OVC005,0.00,VWS V14.01,2013-01-31 20:26:00,
2013-01-31 12:31:00,44.2,28.7,30.19,WSW,239,8.3,10.5,54,0.00,,OVC005,0.00,VWS V14.01,2013-01-31 20:31:00,
2013-01-31 12:36:00,44.6,27.6,30.19,WSW,253,6.3,6.3,51,0.00,,OVC005,0.00,VWS V14.01,2013-01-31 20:36:00,
2013-01-31 12:41:00,44.8,27.8,30.19,SW,225,8.3,10.5,51,0.00,,OVC005,0.00,VWS V14.01,2013-01-31 20:41:00,
2013-01-31 12:46:00,45.1,27.6,30.19,WSW,258,5.8,5.8,50,0.00,,OVC005,0.00,VWS V14.01,2013-01-31 20:46:00,
2013-01-31 12:51:00,45.3,27.3,30.19,WSW,253,8.7,9.2,49,0.00,,OVC005,0.00,VWS V14.01,2013-01-31 20:51:00,
2013-01-31 12:56:00,45.7,27.1,30.19,SSW,213,6.3,6.3,48,0.00,,OVC005,0.00,VWS V14.01,2013-01-31 20:56:00,
2013-01-31 13:01:00,46.0,28.0,30.19,West,274,6.7,8.1,49,0.00,,OVC005,0.00,VWS V14.01,2013-01-31 21:01:00,
2013-01-31 13:06:00,46.6,28.0,30.19,WSW,252,6.3,7.6,48,0.00,,OVC100,0.00,VWS V14.01,2013-01-31 21:06:00,
2013-01-31 13:11:00,47.1,28.5,30.19,WSW,241,8.3,8.3,48,0.00,,OVC100,0.00,VWS V14.01,2013-01-31 21:11:00,
2013-01-31 13:16:00,47.1,26.9,30.19,West,265,8.3,10.1,45,0.00,,OVC100,0.00,VWS V14.01,2013-01-31 21:16:00,
2013-01-31 13:21:00,46.9,26.7,30.19,WSW,244,8.7,11.0,45,0.00,,OVC100,0.00,VWS V14.01,2013-01-31 21:21:00,
2013-01-31 13:26:00,46.9,26.7,30.19,WSW,246,7.6,8.3,45,0.00,,OVC100,0.00,VWS V14.01,2013-01-31 21:26:00,
2013-01-31 13:31:00,46.9,26.7,30.19,WSW,254,7.6,11.0,45,0.00,,OVC100,0.00,VWS V14.01,2013-01-31 21:31:00,
2013-01-31 13:36:00,46.4,25.7,30.16,WSW,237,10.5,10.5,44,0.00,,OVC100,0.00,VWS V14.01,2013-01-31 21:36:00,
2013-01-31 13:41:00,46.2,26.6,30.16,WSW,237,8.3,8.7,46,0.00,,OVC100,0.00,VWS V14.01,2013-01-31 21:41:00,
2013-01-31 13:46:00,46.6,26.4,30.16,WSW,239,6.3,10.1,45,0.00,,OVC100,0.00,VWS V14.01,2013-01-31 21:46:00,
2013-01-31 13:51:00,46.2,26.1,30.16,SW,230,6.3,8.7,45,0.00,,OVC100,0.00,VWS V14.01,2013-01-31 21:51:00,
2013-01-31 13:56:00,45.9,26.3,30.19,WSW,247,10.1,10.1,46,0.00,,OVC100,0.00,VWS V14.01,2013-01-31 21:56:00,
2013-01-31 14:01:00,45.5,25.9,30.19,WSW,243,10.1,10.1,46,0.00,,OVC110,0.00,VWS V14.01,2013-01-31 22:01:00,
2013-01-31 14:06:00,45.3,26.3,30.16,SSW,209,10.5,10.5,47,0.00,,OVC110,0.00,VWS V14.01,2013-01-31 22:06:00,
2013-01-31 14:11:00,45.1,26.1,30.16,SW,227,6.3,8.7,47,0.00,,OVC110,0.00,VWS V14.01,2013-01-31 22:11:00,
2013-01-31 14:16:00,44.8,26.3,30.16,SW,220,5.4,8.3,48,0.00,,OVC110,0.00,VWS V14.01,2013-01-31 22:16:00,
2013-01-31 14:21:00,45.0,26.5,30.16,WSW,253,6.3,6.7,48,0.00,,OVC110,0.00,VWS V14.01,2013-01-31 22:21:00,
2013-01-31 14:26:00,45.3,26.8,30.16,WSW,239,5.8,8.7,48,0.00,,OVC110,0.00,VWS V14.01,2013-01-31 22:26:00,
2013-01-31 14:31:00,45.7,27.1,30.16,SW,234,7.2,7.2,48,0.00,,OVC110,0.00,VWS V14.01,2013-01-31 22:31:00,
2013-01-31 14:36:00,45.9,27.3,30.16,SW,216,3.6,6.3,48,0.00,,OVC110,0.00,VWS V14.01,2013-01-31 22:36:00,
2013-01-31 14:41:00,45.5,27.0,30.19,SSW,204,4.0,4.0,48,0.00,,OVC110,0.00,VWS V14.01,2013-01-31 22:41:00,
2013-01-31 14:46:00,45.3,26.8,30.19,West,271,4.0,4.0,48,0.00,,BKN200,0.00,VWS V14.01,2013-01-31 22:46:00,
2013-01-31 14:51:00,45.3,26.8,30.16,WSW,246,5.4,6.3,48,0.00,,BKN200,0.00,VWS V14.01,2013-01-31 22:51:00,
2013-01-31 14:56:00,45.1,26.1,30.16,WSW,257,5.8,5.8,47,0.00,,BKN200,0.00,VWS V14.01,2013-01-31 22:56:00,
2013-01-31 15:01:00,44.8,26.3,30.16,SW,223,3.1,5.8,48,0.00,,BKN200,0.00,VWS V14.01,2013-01-31 23:01:00,
2013-01-31 15:05:00,44.8,26.8,30.16,WSW,257,5.8,7.6,49,0.00,,BKN200,0.00,VWS V14.01,2013-01-31 23:05:00,
2013-01-31 15:10:00,44.6,26.6,30.16,WSW,249,4.0,5.4,49,0.00,,BKN200,0.00,VWS V14.01,2013-01-31 23:10:00,
2013-01-31 15:15:00,44.4,27.0,30.16,WSW,240,5.8,5.8,50,0.00,,BKN200,0.00,VWS V14.01,2013-01-31 23:15:00,
2013-01-31 15:20:00,44.2,27.3,30.16,WSW,239,6.3,6.3,51,0.00,,BKN200,0.00,VWS V14.01,2013-01-31 23:20:00,
2013-01-31 15:25:00,44.1,27.1,30.16,WSW,241,4.0,7.6,51,0.00,,BKN200,0.00,VWS V14.01,2013-01-31 23:25:00,
2013-01-31 15:30:00,43.9,26.9,30.16,SW,234,3.1,3.6,51,0.00,,BKN200,0.00,VWS V14.01,2013-01-31 23:30:00,
2013-01-31 15:35:00,43.7,27.2,30.16,WSW,251,4.9,7.6,52,0.00,,BKN200,0.00,VWS V14.01,2013-01-31 23:35:00,
2013-01-31 15:40:00,43.7,27.2,30.16,West,262,5.8,5.8,52,0.00,,BKN200,0.00,VWS V14.01,2013-01-31 23:40:00,
2013-01-31 15:45:00,43.5,27.1,30.16,WSW,252,4.9,5.8,52,0.00,,BKN200,0.00,VWS V14.01,2013-01-31 23:45:00,
2013-01-31 15:50:00,43.5,27.1,30.16,West,265,7.6,7.6,52,0.00,,BKN200,0.00,VWS V14.01,2013-01-31 23:50:00,
2013-01-31 15:55:00,43.5,27.1,30.16,West,259,5.4,5.4,52,0.00,,BKN200,0.00,VWS V14.01,2013-01-31 23:55:00,
2013-01-31 16:00:00,43.5,27.1,30.16,WSW,249,4.9,6.3,52,0.00,,OVC075,0.00,VWS V14.01,2013-02-01 00:00:00,
2013-01-31 16:05:00,43.3,26.9,30.16,WSW,250,4.0,4.0,52,0.00,,OVC075,0.00,VWS V14.01,2013-02-01 00:05:00,
2013-01-31 16:10:00,43.2,26.7,30.16,WSW,257,3.6,3.6,52,0.00,,OVC075,0.00,VWS V14.01,2013-02-01 00:10:00,
2013-01-31 16:15:00,43.0,27.0,30.16,West,265,3.6,3.6,53,0.00,,OVC075,0.00,VWS V14.01,2013-02-01 00:15:00,
2013-01-31 16:20:00,42.8,26.9,30.16,West,264,3.1,3.1,53,0.00,,OVC075,0.00,VWS V14.01,2013-02-01 00:20:00,
2013-01-31 16:25:00,42.6,27.1,30.16,West,259,3.1,3.6,54,0.00,,OVC075,0.00,VWS V14.01,2013-02-01 00:25:00,
2013-01-31 16:30:00,42.4,27.4,30.16,WSW,252,3.6,3.6,55,0.00,,OVC075,0.00,VWS V14.01,2013-02-01 00:30:00,
2013-01-31 16:35:00,42.3,27.3,30.16,WSW,257,5.8,5.8,55,0.00,,OVC075,0.00,VWS V14.01,2013-02-01 00:35:00,
2013-01-31 16:40:00,42.1,27.5,30.16,West,263,2.2,4.0,56,0.00,,OVC075,0.00,VWS V14.01,2013-02-01 00:40:00,
2013-01-31 16:45:00,41.9,27.4,30.16,West,263,0.0,0.0,56,0.00,,OVC075,0.00,VWS V14.01,2013-02-01 00:45:00,
2013-01-31 16:50:00,41.7,27.2,30.16,West,263,0.0,0.0,56,0.00,,OVC075,0.00,VWS V14.01,2013-02-01 00:50:00,
2013-01-31 16:55:00,41.5,27.5,30.16,West,263,0.0,0.0,57,0.00,,OVC075,0.00,VWS V14.01,2013-02-01 00:55:00,
2013-01-31 17:00:00,41.2,27.1,30.16,West,263,0.0,0.0,57,0.00,,-RA,0.00,VWS V14.01,2013-02-01 01:00:00,
2013-01-31 17:05:00,41.0,27.8,30.16,WSW,250,2.7,3.6,59,0.00,,-RA,0.00,VWS V14.01,2013-02-01 01:05:00,
2013-01-31 17:10:00,41.0,28.2,30.16,SW,232,3.6,3.6,60,0.00,,-RA,0.00,VWS V14.01,2013-02-01 01:10:00,
2013-01-31 17:15:00,40.8,28.8,30.16,WSW,249,2.7,4.9,62,0.00,,-RA,0.00,VWS V14.01,2013-02-01 01:15:00,
2013-01-31 17:20:00,40.6,29.0,30.16,WSW,250,2.7,2.7,63,0.00,,-RA,0.00,VWS V14.01,2013-02-01 01:20:00,
2013-01-31 17:25:00,40.6,29.0,30.16,WSW,250,0.0,0.0,63,0.00,,-RA,0.00,VWS V14.01,2013-02-01 01:25:00,
2013-01-31 17:30:00,40.5,28.9,30.16,SW,236,0.0,0.0,63,0.00,,-RA,0.00,VWS V14.01,2013-02-01 01:30:00,
2013-01-31 17:35:00,40.3,29.1,30.16,SW,236,0.0,0.0,64,0.00,,-RA,0.00,VWS V14.01,2013-02-01 01:35:00,
2013-01-31 17:40:00,40.1,28.9,30.16,SW,236,0.0,0.0,64,0.00,,-RA,0.00,VWS V14.01,2013-02-01 01:40:00,
2013-01-31 17:45:00,40.1,28.9,30.16,SW,236,0.0,0.0,64,0.00,,-RA,0.00,VWS V14.01,2013-02-01 01:45:00,
2013-01-31 17:50:00,39.9,29.1,30.16,SW,236,0.0,0.0,65,0.00,,-RA,0.00,VWS V14.01,2013-02-01 01:50:00,
2013-01-31 17:55:00,39.9,29.5,30.16,SW,236,0.0,0.0,66,0.00,,-RA,0.00,VWS V14.01,2013-02-01 01:55:00,
2013-01-31 18:00:00,39.9,29.9,30.16,SW,236,0.0,0.0,67,0.00,,-RA,0.00,VWS V14.01,2013-02-01 02:00:00,
2013-01-31 18:05:00,39.7,29.7,30.16,SW,236,0.0,0.0,67,0.00,,-RA,0.00,VWS V14.01,2013-02-01 02:05:00,
2013-01-31 18:10:00,39.7,29.7,30.16,SW,236,0.0,0.0,67,0.00,,-RA,0.00,VWS V14.01,2013-02-01 02:10:00,
2013-01-31 18:15:00,39.7,29.7,30.16,SW,236,0.0,0.0,67,0.00,,-RA,0.00,VWS V14.01,2013-02-01 02:15:00,
2013-01-31 18:20:00,39.6,29.9,30.16,SW,236,0.0,0.0,68,0.00,,-RA,0.00,VWS V14.01,2013-02-01 02:20:00,
2013-01-31 18:25:00,39.4,29.7,30.14,SW,236,0.0,0.0,68,0.00,,-RA,0.00,VWS V14.01,2013-02-01 02:25:00,
2013-01-31 18:30:00,39.4,30.1,30.14,SW,236,0.0,0.0,69,0.00,,-RA,0.00,VWS V14.01,2013-02-01 02:30:00,
2013-01-31 18:35:00,39.4,30.4,30.14,SW,236,0.0,0.0,70,0.00,,-RA,0.00,VWS V14.01,2013-02-01 02:35:00,
2013-01-31 18:40:00,39.6,31.0,30.14,SW,236,0.0,2.7,71,0.00,,-RA,0.00,VWS V14.01,2013-02-01 02:40:00,
2013-01-31 18:45:00,39.7,31.5,30.14,West,261,0.0,0.0,72,0.00,,-RA,0.00,VWS V14.01,2013-02-01 02:45:00,
2013-01-31 18:50:00,39.7,31.5,30.14,West,261,0.0,0.0,72,0.00,,-RA,0.00,VWS V14.01,2013-02-01 02:50:00,
2013-01-31 18:55:00,39.6,31.3,30.14,West,261,0.0,0.0,72,0.00,,-RA,0.00,VWS V14.01,2013-02-01 02:55:00,
2013-01-31 19:00:00,39.6,31.3,30.14,West,261,0.0,0.0,72,0.00,,OVC080,0.00,VWS V14.01,2013-02-01 03:00:00,
2013-01-31 19:05:00,39.4,31.1,30.14,West,261,0.0,0.0,72,0.00,,OVC080,0.00,VWS V14.01,2013-02-01 03:05:00,
2013-01-31 19:10:00,39.2,31.3,30.16,West,261,0.0,0.0,73,0.00,,OVC080,0.00,VWS V14.01,2013-02-01 03:10:00,
2013-01-31 19:15:00,39.2,31.6,30.16,SSW,201,3.6,5.4,74,0.00,,OVC080,0.00,VWS V14.01,2013-02-01 03:15:00,
2013-01-31 19:20:00,39.4,32.5,30.16,SW,232,4.9,4.9,76,0.00,,OVC080,0.00,VWS V14.01,2013-02-01 03:20:00,
2013-01-31 19:25:00,39.7,33.5,30.14,WSW,237,6.3,6.3,78,0.00,,OVC080,0.00,VWS V14.01,2013-02-01 03:25:00,
2013-01-31 19:30:00,39.7,33.5,30.14,WSW,248,4.9,5.8,78,0.00,,OVC080,0.00,VWS V14.01,2013-02-01 03:30:00,
2013-01-31 19:35:00,39.9,33.6,30.14,SW,235,3.6,4.9,78,0.00,,OVC080,0.00,VWS V14.01,2013-02-01 03:35:00,
2013-01-31 19:40:00,40.1,33.8,30.14,WSW,245,3.1,3.6,78,0.00,,OVC080,0.00,VWS V14.01,2013-02-01 03:40:00,
2013-01-31 19:45:00,40.1,33.5,30.14,SW,223,4.0,4.0,77,0.00,,OVC080,0.00,VWS V14.01,2013-02-01 03:45:00,
2013-01-31 19:50:00,39.9,33.0,30.14,WSW,244,3.6,3.6,76,0.00,,OVC080,0.00,VWS V14.01,2013-02-01 03:50:00,
2013-01-31 19:55:00,39.9,33.0,30.14,SW,215,3.6,3.6,76,0.00,,OVC080,0.00,VWS V14.01,2013-02-01 03:55:00,
2013-01-31 20:00:00,39.9,32.7,30.14,SW,235,2.2,2.2,75,0.00,,BKN200,0.00,VWS V14.01,2013-02-01 04:00:00,
2013-01-31 20:05:00,39.7,32.5,30.14,WSW,238,4.0,4.0,75,0.00,,BKN200,0.00,VWS V14.01,2013-02-01 04:05:00,
2013-01-31 20:10:00,39.7,32.5,30.14,SW,224,3.1,3.1,75,0.00,,BKN200,0.00,VWS V14.01,2013-02-01 04:10:00,
2013-01-31 20:15:00,39.6,32.0,30.14,SW,222,3.1,3.1,74,0.00,,BKN200,0.00,VWS V14.01,2013-02-01 04:15:00,
2013-01-31 20:20:00,39.7,32.5,30.14,WSW,243,6.3,6.3,75,0.00,,BKN200,0.00,VWS V14.01,2013-02-01 04:20:00,
2013-01-31 20:25:00,39.9,32.7,30.14,SW,229,4.0,5.4,75,0.00,,BKN200,0.00,VWS V14.01,2013-02-01 04:25:00,
2013-01-31 20:30:00,39.7,32.1,30.14,SW,233,6.3,6.3,74,0.00,,BKN200,0.00,VWS V14.01,2013-02-01 04:30:00,
2013-01-31 20:35:00,39.6,31.6,30.14,SW,236,5.4,8.1,73,0.00,,BKN200,0.00,VWS V14.01,2013-02-01 04:35:00,
2013-01-31 20:40:00,39.4,31.5,30.14,WSW,243,5.4,8.1,73,0.00,,BKN200,0.00,VWS V14.01,2013-02-01 04:40:00,
2013-01-31 20:45:00,39.4,31.5,30.14,SW,229,6.3,6.3,73,0.00,,BKN200,0.00,VWS V14.01,2013-02-01 04:45:00,
2013-01-31 20:50:00,39.6,31.6,30.14,SW,236,8.1,8.7,73,0.00,,BKN200,0.00,VWS V14.01,2013-02-01 04:50:00,
2013-01-31 20:55:00,39.7,31.5,30.14,WSW,245,8.1,8.1,72,0.00,,BKN200,0.00,VWS V14.01,2013-02-01 04:55:00,
2013-01-31 21:00:00,39.7,31.1,30.14,WSW,253,8.1,8.1,71,0.00,,SCT200,0.00,VWS V14.01,2013-02-01 05:00:00,
2013-01-31 21:01:00,39.7,31.1,30.14,WSW,254,8.1,8.7,71,0.00,,SCT200,0.00,VWS V14.01,2013-02-01 05:01:00,
2013-01-31 21:06:00,39.7,31.1,30.14,WSW,239,6.3,6.3,71,0.00,,SCT200,0.00,VWS V14.01,2013-02-01 05:06:00,
2013-01-31 21:10:00,39.7,31.1,30.14,West,259,5.8,5.8,71,0.00,,SCT200,0.00,VWS V14.01,2013-02-01 05:10:00,
2013-01-31 21:16:00,39.7,30.8,30.14,SW,225,6.3,6.3,70,0.00,,SCT200,0.00,VWS V14.01,2013-02-01 05:16:00,
2013-01-31 21:21:00,39.9,30.9,30.14,WSW,243,4.9,4.9,70,0.00,,SCT200,0.00,VWS V14.01,2013-02-01 05:21:00,
2013-01-31 21:26:00,39.9,30.6,30.14,WSW,254,5.4,5.4,69,0.00,,SCT200,0.00,VWS V14.01,2013-02-01 05:26:00,
2013-01-31 21:31:00,39.9,30.6,30.14,SW,218,6.3,6.3,69,0.00,,SCT200,0.00,VWS V14.01,2013-02-01 05:31:00,
2013-01-31 21:36:00,39.7,30.1,30.14,SW,236,3.6,3.6,68,0.00,,SCT200,0.00,VWS V14.01,2013-02-01 05:36:00,
2013-01-31 21:40:00,39.7,30.1,30.14,WSW,246,2.7,3.6,68,0.00,,SCT200,0.00,VWS V14.01,2013-02-01 05:40:00,
2013-01-31 21:45:00,39.4,29.7,30.14,West,280,5.8,6.3,68,0.00,,SCT200,0.00,VWS V14.01,2013-02-01 05:45:00,
2013-01-31 21:51:00,39.2,29.5,30.14,WSW,256,3.1,3.1,68,0.00,,SCT200,0.00,VWS V14.01,2013-02-01 05:51:00,
2013-01-31 21:56:00,39.0,29.7,30.14,WSW,240,3.6,4.0,69,0.00,,SCT200,0.00,VWS V14.01,2013-02-01 05:56:00,
2013-01-31 22:00:00,38.8,29.5,30.14,WSW,249,3.1,3.1,69,0.00,,BKN200,0.00,VWS V14.01,2013-02-01 06:00:00,
2013-01-31 22:05:00,38.7,29.4,30.14,West,259,4.0,4.0,69,0.00,,BKN200,0.00,VWS V14.01,2013-02-01 06:05:00,
2013-01-31 22:11:00,38.7,29.4,30.14,West,261,3.6,4.0,69,0.00,,BKN200,0.00,VWS V14.01,2013-02-01 06:11:00,
2013-01-31 22:15:00,38.7,29.7,30.14,West,261,6.3,6.3,70,0.00,,BKN200,0.00,VWS V14.01,2013-02-01 06:15:00,
2013-01-31 22:20:00,38.7,29.7,30.14,WSW,244,3.6,6.3,70,0.00,,BKN200,0.00,VWS V14.01,2013-02-01 06:20:00,
2013-01-31 22:25:00,38.5,29.6,30.14,SW,224,3.1,4.0,70,0.00,,BKN200,0.00,VWS V14.01,2013-02-01 06:25:00,
2013-01-31 22:30:00,38.5,29.6,30.14,West,262,4.0,4.9,70,0.00,,BKN200,0.00,VWS V14.01,2013-02-01 06:30:00,
2013-01-31 22:35:00,38.5,29.9,30.14,West,260,2.7,3.1,71,0.00,,BKN200,0.00,VWS V14.01,2013-02-01 06:35:00,
2013-01-31 22:40:00,38.5,29.6,30.14,WSW,237,4.0,5.8,70,0.00,,BKN200,0.00,VWS V14.01,2013-02-01 06:40:00,
2013-01-31 22:45:00,38.1,29.2,30.14,West,265,0.0,0.0,70,0.00,,BKN200,0.00,VWS V14.01,2013-02-01 06:45:00,
2013-01-31 22:50:00,37.6,28.4,30.14,WSW,248,2.7,2.7,69,0.00,,BKN200,0.00,VWS V14.01,2013-02-01 06:50:00,
2013-01-31 22:55:00,37.4,28.5,30.14,SW,232,2.7,2.7,70,0.00,,BKN200,0.00,VWS V14.01,2013-02-01 06:55:00,
2013-01-31 23:00:00,37.8,29.6,30.14,West,260,2.7,4.0,72,0.00,,SCT200,0.08,VWS V14.01,2013-02-01 07:00:00,
2013-01-31 23:05:00,38.1,30.2,30.14,West,260,4.0,4.0,73,0.00,,SCT200,0.00,VWS V14.01,2013-02-01 07:05:00,
2013-01-31 23:10:00,38.3,30.4,30.14,West,271,6.3,6.3,73,0.00,,SCT200,0.00,VWS V14.01,2013-02-01 07:10:00,
2013-01-31 23:15:00,38.5,30.6,30.14,WSW,252,10.5,10.5,73,0.00,,SCT200,0.00,VWS V14.01,2013-02-01 07:15:00,
2013-01-31 23:20:00,38.7,30.4,30.14,West,260,4.9,6.3,72,0.00,,SCT200,0.00,VWS V14.01,2013-02-01 07:20:00,
2013-01-31 23:25:00,38.7,30.1,30.14,West,278,2.7,2.7,71,0.00,,SCT200,0.00,VWS V14.01,2013-02-01 07:25:00,
2013-01-31 23:31:00,38.5,29.6,30.14,WSW,258,5.4,5.8,70,0.00,,SCT200,0.00,VWS V14.01,2013-02-01 07:31:00,
2013-01-31 23:36:00,38.3,29.4,30.14,West,268,2.2,2.2,70,0.00,,SCT200,0.00,VWS V14.01,2013-02-01 07:36:00,
2013-01-31 23:41:00,38.1,28.9,30.14,West,265,2.7,2.7,69,0.00,,SCT200,0.00,VWS V14.01,2013-02-01 07:41:00,
2013-01-31 23:46:00,37.9,28.7,30.14,West,267,0.0,0.0,69,0.00,,SCT200,0.00,VWS V14.01,2013-02-01 07:46:00,
2013-01-31 23:51:00,37.9,29.0,30.14,WNW,282,0.0,0.0,70,0.00,,SCT200,0.00,VWS V14.01,2013-02-01 07:51:00,
2013-01-31 23:56:00,37.8,28.9,30.14,WNW,282,0.0,0.0,70,0.00,,SCT200,0.00,VWS V14.01,2013-02-01 07:56:00,